createdAt,value
2023-01-08T00:00:15.909Z,11.10
2023-01-08T00:02:45.347Z,11.10
2023-01-08T00:05:15.075Z,11.20
2023-01-08T00:07:44.436Z,11.20
2023-01-08T00:10:13.923Z,11.10
2023-01-08T00:12:43.428Z,11.20
2023-01-08T00:15:12.062Z,11.20
2023-01-08T00:17:41.433Z,11.10
2023-01-08T00:20:11.205Z,11.10
2023-01-08T00:22:40.703Z,11.00
2023-01-08T00:25:10.532Z,11.00
2023-01-08T00:27:39.968Z,11.00
2023-01-08T00:30:10.452Z,10.90
2023-01-08T00:32:40.707Z,10.90
2023-01-08T00:35:10.389Z,10.90
2023-01-08T00:37:39.811Z,10.70
2023-01-08T00:40:11.330Z,10.80
2023-01-08T00:42:40.780Z,10.50
2023-01-08T00:45:10.556Z,10.50
2023-01-08T00:47:40.102Z,10.60
2023-01-08T00:50:09.991Z,10.50
2023-01-08T00:52:40.692Z,10.50
2023-01-08T00:55:29.566Z,10.60
2023-01-08T00:57:59.015Z,10.50
2023-01-08T01:00:29.114Z,10.60
2023-01-08T01:02:58.587Z,10.50
2023-01-08T01:05:28.091Z,10.70
2023-01-08T01:07:57.947Z,10.50
2023-01-08T01:10:27.670Z,10.40
2023-01-08T01:12:57.164Z,10.30
2023-01-08T01:15:27.093Z,10.20
2023-01-08T01:17:56.622Z,10.30
2023-01-08T01:20:26.527Z,10.40
2023-01-08T01:22:56.210Z,10.30
2023-01-08T01:25:25.722Z,10.20
2023-01-08T01:27:55.158Z,10.40
2023-01-08T01:30:24.620Z,10.30
2023-01-08T01:32:54.050Z,10.40
2023-01-08T01:35:24.753Z,10.40
2023-01-08T01:37:54.191Z,10.50
2023-01-08T01:40:23.631Z,10.30
2023-01-08T01:42:53.544Z,10.30
2023-01-08T01:45:29.624Z,10.40
2023-01-08T01:48:14.032Z,10.40
2023-01-08T01:50:54.131Z,10.50
2023-01-08T01:53:29.561Z,10.40
2023-01-08T01:56:01.489Z,10.40
2023-01-08T01:58:34.232Z,10.20
2023-01-08T02:01:07.341Z,10.20
2023-01-08T02:03:40.104Z,10.20
2023-01-08T02:06:22.076Z,10.40
2023-01-08T02:09:12.211Z,10.30
2023-01-08T02:11:55.370Z,10.30
2023-01-08T02:14:30.729Z,10.40
2023-01-08T02:17:03.305Z,10.30
2023-01-08T02:19:53.850Z,10.40
2023-01-08T02:22:59.890Z,10.40
2023-01-08T02:25:41.496Z,10.30
2023-01-08T02:28:14.278Z,10.30
2023-01-08T02:30:45.441Z,10.40
2023-01-08T02:33:15.056Z,10.40
2023-01-08T02:35:47.569Z,10.30
2023-01-08T02:38:19.326Z,10.30
2023-01-08T02:40:57.693Z,10.40
2023-01-08T02:43:37.686Z,10.40
2023-01-08T02:46:10.051Z,10.50
2023-01-08T02:48:50.038Z,10.30
2023-01-08T02:51:25.130Z,10.30
2023-01-08T02:53:57.846Z,10.30
2023-01-08T02:56:33.798Z,10.50
2023-01-08T02:59:06.813Z,10.30
2023-01-08T03:01:36.152Z,10.40
2023-01-08T03:04:09.234Z,10.20
2023-01-08T03:06:40.480Z,10.30
2023-01-08T03:09:10.499Z,10.20
2023-01-08T03:11:48.859Z,10.20
2023-01-08T03:14:24.370Z,10.10
2023-01-08T03:17:18.135Z,10.00
2023-01-08T03:19:59.808Z,10.10
2023-01-08T03:22:31.493Z,9.90
2023-01-08T03:25:44.999Z,10.00
2023-01-08T03:28:20.448Z,10.00
2023-01-08T03:30:57.719Z,10.10
2023-01-08T03:33:30.203Z,10.00
2023-01-08T03:36:02.983Z,10.10
2023-01-08T03:38:38.494Z,10.00
2023-01-08T03:41:11.683Z,10.10
2023-01-08T03:43:41.656Z,10.10
2023-01-08T03:46:20.509Z,10.00
2023-01-08T03:48:51.433Z,9.90
2023-01-08T03:51:21.413Z,10.20
2023-01-08T03:53:53.946Z,10.20
2023-01-08T03:56:23.664Z,10.00
2023-01-08T03:58:53.144Z,10.20
2023-01-08T04:01:22.729Z,10.00
2023-01-08T04:03:52.580Z,9.90
2023-01-08T04:06:22.072Z,10.20
2023-01-08T04:08:51.818Z,10.10
2023-01-08T04:11:21.672Z,10.10
2023-01-08T04:13:51.174Z,10.00
2023-01-08T04:16:22.582Z,10.10
2023-01-08T04:18:52.244Z,10.00
2023-01-08T04:21:21.741Z,10.10
2023-01-08T04:23:51.183Z,10.00
2023-01-08T04:26:20.656Z,10.20
2023-01-08T04:28:50.092Z,10.10
2023-01-08T04:31:19.596Z,10.20
2023-01-08T04:33:49.144Z,10.20
2023-01-08T04:36:18.574Z,10.00
2023-01-08T04:38:47.225Z,9.90
2023-01-08T04:41:18.531Z,9.90
2023-01-08T04:43:48.497Z,10.00
2023-01-08T04:46:18.053Z,9.80
2023-01-08T04:48:47.676Z,9.90
2023-01-08T04:51:17.190Z,9.90
2023-01-08T04:53:46.533Z,9.90
2023-01-08T04:56:15.271Z,10.10
2023-01-08T04:58:44.678Z,9.90
2023-01-08T05:01:15.380Z,9.70
2023-01-08T05:03:44.795Z,9.90
2023-01-08T05:06:14.693Z,9.70
2023-01-08T05:08:44.192Z,9.90
2023-01-08T05:11:13.614Z,9.90
2023-01-08T05:13:43.190Z,9.80
2023-01-08T05:16:12.808Z,9.70
2023-01-08T05:18:42.377Z,9.80
2023-01-08T05:21:13.621Z,9.80
2023-01-08T05:23:48.377Z,9.90
2023-01-08T05:26:19.615Z,10.00
2023-01-08T05:28:49.189Z,10.00
2023-01-08T05:31:18.687Z,10.10
2023-01-08T05:33:48.537Z,10.00
2023-01-08T05:36:18.248Z,10.10
2023-01-08T05:38:47.675Z,10.00
2023-01-08T05:41:17.439Z,10.00
2023-01-08T05:43:47.008Z,10.00
2023-01-08T05:46:17.335Z,10.10
2023-01-08T05:48:46.796Z,10.00
2023-01-08T05:51:16.230Z,10.00
2023-01-08T05:53:45.981Z,10.10
2023-01-08T05:56:15.560Z,10.10
2023-01-08T05:58:45.132Z,9.80
2023-01-08T06:01:16.677Z,9.90
2023-01-08T06:03:46.257Z,9.80
2023-01-08T06:06:17.203Z,9.90
2023-01-08T06:08:46.612Z,9.90
2023-01-08T06:11:16.043Z,9.90
2023-01-08T06:13:45.935Z,10.00
2023-01-08T06:16:17.300Z,9.90
2023-01-08T06:18:47.994Z,9.80
2023-01-08T06:21:17.415Z,9.90
2023-01-08T06:23:46.836Z,9.90
2023-01-08T06:26:16.513Z,10.00
2023-01-08T06:28:46.027Z,9.80
2023-01-08T06:31:15.538Z,9.80
2023-01-08T06:33:45.692Z,10.00
2023-01-08T06:36:15.139Z,9.80
2023-01-08T06:38:44.565Z,9.90
2023-01-08T06:41:15.394Z,9.80
2023-01-08T06:43:44.848Z,9.80
2023-01-08T06:46:15.272Z,9.80
2023-01-08T06:48:44.815Z,9.80
2023-01-08T06:51:14.553Z,9.80
2023-01-08T06:53:44.222Z,9.70
2023-01-08T06:56:13.669Z,9.80
2023-01-08T06:58:43.094Z,9.60
2023-01-08T07:01:17.096Z,9.70
2023-01-08T07:03:46.749Z,9.60
2023-01-08T07:06:18.929Z,9.70
2023-01-08T07:08:48.851Z,9.60
2023-01-08T07:11:18.951Z,9.60
2023-01-08T07:13:48.371Z,9.50
2023-01-08T07:16:18.328Z,9.60
2023-01-08T07:18:47.792Z,9.60
2023-01-08T07:21:17.236Z,9.50
2023-01-08T07:23:48.437Z,9.40
2023-01-08T07:26:18.210Z,9.30
2023-01-08T07:28:47.695Z,9.40
2023-01-08T07:31:17.374Z,9.40
2023-01-08T07:33:46.835Z,9.40
2023-01-08T07:36:16.514Z,9.30
2023-01-08T07:38:46.188Z,9.30
2023-01-08T07:41:15.621Z,9.30
2023-01-08T07:43:45.134Z,9.30
2023-01-08T07:46:15.335Z,9.20
2023-01-08T07:48:44.906Z,9.20
2023-01-08T07:51:14.337Z,9.20
2023-01-08T07:53:44.154Z,9.10
2023-01-08T07:56:13.859Z,9.20
2023-01-08T07:58:43.839Z,9.20
2023-01-08T08:01:13.744Z,9.00
2023-01-08T08:03:43.830Z,9.00
2023-01-08T08:06:13.276Z,9.00
2023-01-08T08:08:42.767Z,9.10
2023-01-08T08:11:12.205Z,9.20
2023-01-08T08:13:43.565Z,9.00
2023-01-08T08:16:13.553Z,9.20
2023-01-08T08:18:43.328Z,9.10
2023-01-08T08:21:13.485Z,9.10
2023-01-08T08:23:42.979Z,9.10
2023-01-08T08:26:12.504Z,9.10
2023-01-08T08:28:42.117Z,9.20
2023-01-08T08:31:11.609Z,9.20
2023-01-08T08:33:41.122Z,9.20
2023-01-08T08:36:10.667Z,9.30
2023-01-08T08:38:41.033Z,9.50
2023-01-08T08:41:10.760Z,9.90
2023-01-08T08:43:40.200Z,10.60
2023-01-08T08:46:09.655Z,11.00
2023-01-08T08:48:39.410Z,10.70
2023-01-08T08:51:08.844Z,10.50
2023-01-08T08:53:38.653Z,10.70
2023-01-08T08:56:09.029Z,10.40
2023-01-08T08:58:39.394Z,10.20
2023-01-08T09:01:10.498Z,10.10
2023-01-08T09:03:44.574Z,10.00
2023-01-08T09:06:15.674Z,9.80
2023-01-08T09:08:45.407Z,9.80
2023-01-08T09:11:14.947Z,9.90
2023-01-08T09:13:44.379Z,9.90
2023-01-08T09:16:13.079Z,10.00
2023-01-08T09:18:42.957Z,9.80
2023-01-08T09:21:12.475Z,9.80
2023-01-08T09:23:42.086Z,9.90
2023-01-08T09:26:11.618Z,10.00
2023-01-08T09:28:41.039Z,10.00
2023-01-08T09:31:12.034Z,9.90
2023-01-08T09:33:41.772Z,9.80
2023-01-08T09:36:12.356Z,10.00
2023-01-08T09:38:41.045Z,9.90
2023-01-08T09:41:11.181Z,9.90
2023-01-08T09:43:41.101Z,9.90
2023-01-08T09:46:10.836Z,10.00
2023-01-08T09:48:41.235Z,10.10
2023-01-08T09:51:17.321Z,10.10
2023-01-08T09:53:47.197Z,10.20
2023-01-08T09:56:17.409Z,10.40
2023-01-08T09:58:49.179Z,10.40
2023-01-08T10:01:20.197Z,10.50
2023-01-08T10:03:53.651Z,10.80
2023-01-08T10:06:25.014Z,11.00
2023-01-08T10:08:54.260Z,10.90
2023-01-08T10:11:23.272Z,10.80
2023-01-08T10:13:56.552Z,10.70
2023-01-08T10:16:31.698Z,10.70
2023-01-08T10:19:03.403Z,10.70
2023-01-08T10:21:35.644Z,10.50
2023-01-08T10:24:05.403Z,10.60
2023-01-08T10:26:37.637Z,10.60
2023-01-08T10:29:18.960Z,10.60
2023-01-08T10:31:54.792Z,10.70
2023-01-08T10:34:33.647Z,10.60
2023-01-08T10:37:04.641Z,10.60
2023-01-08T10:39:34.719Z,10.90
2023-01-08T10:42:07.754Z,10.70
2023-01-08T10:44:38.621Z,10.80
2023-01-08T10:47:08.319Z,10.90
2023-01-08T10:49:42.076Z,10.80
2023-01-08T10:52:29.726Z,10.70
2023-01-08T10:55:01.428Z,10.70
2023-01-08T10:57:32.886Z,10.80
2023-01-08T11:00:02.330Z,10.70
2023-01-08T11:02:39.552Z,10.90
2023-01-08T11:05:11.647Z,10.90
2023-01-08T11:07:42.034Z,10.80
2023-01-08T11:10:26.735Z,10.80
2023-01-08T11:13:01.952Z,10.90
2023-01-08T11:15:34.511Z,10.80
2023-01-08T11:18:13.663Z,11.00
2023-01-08T11:20:43.228Z,11.00
2023-01-08T11:23:19.265Z,11.00
2023-01-08T11:25:55.489Z,11.20
2023-01-08T11:28:28.016Z,11.10
2023-01-08T11:31:03.334Z,11.20
2023-01-08T11:33:36.358Z,11.30
2023-01-08T11:36:20.958Z,11.20
2023-01-08T11:38:50.671Z,11.20
2023-01-08T11:41:32.691Z,11.20
2023-01-08T11:44:05.325Z,11.10
2023-01-08T11:46:50.679Z,11.10
2023-01-08T11:49:40.515Z,11.00
2023-01-08T11:52:18.882Z,11.10
2023-01-08T11:55:00.577Z,11.10
2023-01-08T11:58:00.417Z,11.10
2023-01-08T12:00:42.220Z,11.10
2023-01-08T12:03:29.613Z,11.10
2023-01-08T12:06:12.353Z,11.20
2023-01-08T12:08:50.355Z,11.30
2023-01-08T12:11:23.455Z,11.40
2023-01-08T12:13:53.632Z,11.30
2023-01-08T12:16:46.858Z,11.40
2023-01-08T12:19:40.310Z,11.30
2023-01-08T12:22:26.183Z,11.40
2023-01-08T12:24:58.690Z,11.30
2023-01-08T12:28:00.647Z,11.50
2023-01-08T12:30:28.428Z,11.50
2023-01-08T12:33:03.851Z,11.60
2023-01-08T12:35:39.691Z,11.60
2023-01-08T12:38:24.038Z,11.70
2023-01-08T12:40:56.811Z,11.50
2023-01-08T12:43:32.173Z,11.40
2023-01-08T12:46:03.632Z,11.50
2023-01-08T12:48:36.909Z,11.60
2023-01-08T12:51:17.041Z,11.60
2023-01-08T12:54:21.498Z,11.60
2023-01-08T12:57:15.193Z,11.70
2023-01-08T13:00:03.378Z,11.80
2023-01-08T13:02:36.118Z,11.90
2023-01-08T13:05:16.140Z,11.80
2023-01-08T13:07:48.404Z,11.90
2023-01-08T13:10:40.270Z,11.80
2023-01-08T13:13:12.819Z,11.80
2023-01-08T13:15:42.505Z,12.00
2023-01-08T13:18:20.625Z,12.20
2023-01-08T13:21:01.571Z,12.10
2023-01-08T13:23:35.365Z,12.20
2023-01-08T13:26:07.650Z,12.20
2023-01-08T13:28:40.149Z,12.20
2023-01-08T13:31:18.698Z,12.20
2023-01-08T13:33:51.593Z,12.40
2023-01-08T13:36:24.738Z,12.30
2023-01-08T13:39:15.245Z,12.30
2023-01-08T13:41:59.707Z,12.30
2023-01-08T13:44:32.253Z,12.10
2023-01-08T13:47:04.882Z,12.10
2023-01-08T13:49:38.100Z,12.10
2023-01-08T13:52:08.097Z,12.20
2023-01-08T13:54:40.565Z,12.20
2023-01-08T13:57:16.500Z,12.00
2023-01-08T13:59:58.005Z,11.90
2023-01-08T14:02:31.499Z,12.00
2023-01-08T14:05:03.274Z,11.90
2023-01-08T14:07:32.832Z,11.90
2023-01-08T14:10:11.391Z,11.80
2023-01-08T14:12:42.148Z,11.70
2023-01-08T14:15:23.468Z,11.70
2023-01-08T14:17:54.607Z,11.70
2023-01-08T14:20:27.134Z,11.70
2023-01-08T14:22:56.911Z,11.90
2023-01-08T14:25:26.674Z,11.90
2023-01-08T14:28:02.053Z,12.00
2023-01-08T14:30:32.751Z,11.90
2023-01-08T14:33:03.283Z,11.90
2023-01-08T14:35:35.932Z,11.80
2023-01-08T14:38:06.147Z,11.80
2023-01-08T14:40:38.649Z,11.70
2023-01-08T14:43:14.349Z,11.70
2023-01-08T14:45:51.466Z,11.60
2023-01-08T14:48:33.510Z,11.70
2023-01-08T14:51:08.891Z,11.70
2023-01-08T14:53:42.154Z,11.60
2023-01-08T14:56:22.835Z,11.70
2023-01-08T14:58:54.497Z,11.60
2023-01-08T15:01:30.034Z,11.50
2023-01-08T15:04:10.538Z,11.50
2023-01-08T15:06:40.120Z,11.40
2023-01-08T15:09:22.352Z,11.40
2023-01-08T15:11:54.855Z,11.40
2023-01-08T15:14:31.849Z,11.40
2023-01-08T15:17:07.799Z,11.60
2023-01-08T15:19:43.257Z,11.40
2023-01-08T15:22:15.860Z,11.40
2023-01-08T15:24:48.414Z,11.40
2023-01-08T15:27:18.615Z,11.20
2023-01-08T15:29:55.184Z,11.40
2023-01-08T15:32:27.025Z,11.20
2023-01-08T15:34:57.026Z,11.40
2023-01-08T15:37:26.534Z,11.40
2023-01-08T15:39:55.972Z,11.30
2023-01-08T15:42:51.543Z,11.40
2023-01-08T15:45:23.577Z,11.30
2023-01-08T15:47:53.577Z,11.40
2023-01-08T15:50:25.129Z,11.50
2023-01-08T15:52:57.318Z,11.30
2023-01-08T15:55:27.314Z,11.40
2023-01-08T15:57:56.745Z,11.20
2023-01-08T16:00:26.824Z,11.40
2023-01-08T16:02:59.100Z,11.30
2023-01-08T16:05:31.367Z,11.30
2023-01-08T16:08:01.048Z,11.30
2023-01-08T16:10:30.569Z,11.20
2023-01-08T16:13:02.344Z,11.20
2023-01-08T16:15:32.117Z,11.20
2023-01-08T16:18:01.578Z,11.20
2023-01-08T16:20:31.058Z,11.20
2023-01-08T16:23:00.490Z,11.20
2023-01-08T16:25:31.572Z,11.00
2023-01-08T16:28:03.637Z,11.20
2023-01-08T16:30:33.140Z,11.20
2023-01-08T16:33:03.947Z,11.10
2023-01-08T16:35:33.451Z,11.10
2023-01-08T16:38:02.913Z,11.10
2023-01-08T16:40:32.345Z,11.00
2023-01-08T16:43:03.360Z,11.00
2023-01-08T16:45:34.191Z,11.00
2023-01-08T16:48:04.271Z,11.00
2023-01-08T16:50:34.097Z,11.00
2023-01-08T16:53:03.535Z,11.10
2023-01-08T16:55:33.201Z,11.00
2023-01-08T16:58:04.276Z,11.10
2023-01-08T17:00:34.763Z,11.00
2023-01-08T17:03:06.181Z,10.90
2023-01-08T17:05:37.809Z,11.00
2023-01-08T17:08:08.521Z,10.80
2023-01-08T17:10:40.242Z,10.90
2023-01-08T17:13:10.522Z,11.00
2023-01-08T17:15:41.532Z,11.00
2023-01-08T17:18:11.993Z,11.00
2023-01-08T17:20:44.447Z,11.00
2023-01-08T17:23:13.907Z,10.90
2023-01-08T17:25:43.364Z,11.00
2023-01-08T17:28:12.793Z,10.80
2023-01-08T17:30:42.562Z,10.90
2023-01-08T17:33:14.640Z,11.00
2023-01-08T17:35:43.647Z,10.80
2023-01-08T17:38:13.084Z,10.80
2023-01-08T17:40:42.518Z,11.00
2023-01-08T17:43:12.655Z,10.90
2023-01-08T17:45:42.108Z,10.70
2023-01-08T17:48:11.834Z,10.80
2023-01-08T17:50:41.708Z,10.70
2023-01-08T17:53:11.134Z,10.70
2023-01-08T17:55:41.937Z,10.70
2023-01-08T17:58:11.365Z,10.70
2023-01-08T18:00:40.908Z,10.80
2023-01-08T18:03:10.436Z,10.70
2023-01-08T18:05:40.013Z,10.80
2023-01-08T18:08:09.440Z,10.70
2023-01-08T18:10:40.516Z,10.80
2023-01-08T18:13:09.918Z,10.60
2023-01-08T18:15:39.360Z,10.50
2023-01-08T18:18:08.836Z,10.60
2023-01-08T18:20:40.064Z,10.70
2023-01-08T18:23:09.690Z,10.60
2023-01-08T18:25:42.592Z,10.70
2023-01-08T18:28:12.453Z,10.70
2023-01-08T18:30:43.094Z,10.50
2023-01-08T18:33:14.150Z,10.50
2023-01-08T18:35:43.590Z,10.80
2023-01-08T18:38:20.114Z,10.60
2023-01-08T18:40:50.332Z,10.60
2023-01-08T18:43:21.176Z,10.70
2023-01-08T18:45:50.634Z,10.60
2023-01-08T18:48:20.142Z,10.80
2023-01-08T18:50:50.048Z,10.60
2023-01-08T18:53:19.503Z,10.80
2023-01-08T18:55:50.229Z,10.90
2023-01-08T18:58:20.041Z,10.90
2023-01-08T19:00:49.598Z,10.80
2023-01-08T19:03:19.182Z,10.90
2023-01-08T19:05:48.603Z,10.70
2023-01-08T19:08:18.059Z,10.70
2023-01-08T19:10:47.757Z,10.90
2023-01-08T19:13:19.143Z,10.70
2023-01-08T19:15:49.024Z,10.70
2023-01-08T19:18:18.541Z,10.90
2023-01-08T19:20:49.903Z,10.90
2023-01-08T19:23:20.374Z,10.70
2023-01-08T19:25:49.931Z,10.90
2023-01-08T19:28:19.445Z,10.80
2023-01-08T19:30:57.017Z,10.70
2023-01-08T19:33:26.917Z,10.70
2023-01-08T19:35:56.414Z,10.70
2023-01-08T19:38:26.452Z,10.70
2023-01-08T19:41:03.396Z,10.80
2023-01-08T19:43:45.343Z,10.70
2023-01-08T19:46:16.396Z,10.70
2023-01-08T19:48:46.178Z,10.80
2023-01-08T19:51:15.763Z,10.70
2023-01-08T19:53:45.567Z,10.70
2023-01-08T19:56:16.507Z,10.90
2023-01-08T19:58:46.013Z,10.90
2023-01-08T20:01:18.092Z,10.70
2023-01-08T20:03:48.371Z,10.80
2023-01-08T20:06:21.465Z,10.80
2023-01-08T20:08:52.247Z,10.90
2023-01-08T20:11:23.829Z,10.80
2023-01-08T20:13:55.567Z,10.60
2023-01-08T20:16:25.508Z,10.60
2023-01-08T20:19:01.252Z,10.70
2023-01-08T20:21:32.192Z,10.60
2023-01-08T20:24:07.264Z,10.60
2023-01-08T20:26:37.724Z,10.70
2023-01-08T20:29:07.750Z,10.80
2023-01-08T20:31:40.064Z,10.60
2023-01-08T20:34:15.676Z,10.70
2023-01-08T20:36:46.669Z,10.50
2023-01-08T20:39:18.588Z,10.70
2023-01-08T20:41:55.787Z,10.50
2023-01-08T20:44:20.324Z,10.50
2023-01-08T20:46:49.837Z,10.70
2023-01-08T20:49:20.636Z,10.60
2023-01-08T20:51:58.647Z,10.50
2023-01-08T20:54:22.452Z,10.60
2023-01-08T20:56:53.063Z,10.60
2023-01-08T20:59:24.238Z,10.50
2023-01-08T21:01:54.402Z,10.60
2023-01-08T21:04:25.632Z,10.60
2023-01-08T21:06:55.357Z,10.60
2023-01-08T21:09:25.218Z,10.60
2023-01-08T21:11:54.749Z,10.40
2023-01-08T21:14:24.245Z,10.50
2023-01-08T21:16:54.143Z,10.40
2023-01-08T21:19:23.691Z,10.40
2023-01-08T21:21:53.607Z,10.50
2023-01-08T21:24:23.845Z,10.40
2023-01-08T21:26:53.265Z,10.40
2023-01-08T21:29:23.767Z,10.30
2023-01-08T21:31:53.903Z,10.40
2023-01-08T21:34:23.517Z,10.30
2023-01-08T21:36:53.629Z,10.30
2023-01-08T21:39:23.183Z,10.50
2023-01-08T21:42:10.387Z,10.40
2023-01-08T21:44:58.441Z,10.50
2023-01-08T21:47:29.434Z,10.40
2023-01-08T21:49:59.283Z,10.50
2023-01-08T21:52:46.761Z,10.40
2023-01-08T21:55:17.848Z,10.50
2023-01-08T21:57:47.267Z,10.50
2023-01-08T22:00:17.237Z,10.50
2023-01-08T22:02:46.761Z,10.50
2023-01-08T22:05:16.262Z,10.50
2023-01-08T22:07:45.687Z,10.30
2023-01-08T22:10:15.813Z,10.40
2023-01-08T22:12:45.310Z,10.40
2023-01-08T22:15:16.451Z,10.40
2023-01-08T22:17:45.947Z,10.40
2023-01-08T22:20:15.814Z,10.30
2023-01-08T22:22:47.353Z,10.20
2023-01-08T22:25:18.769Z,10.30
2023-01-08T22:27:50.050Z,10.20
2023-01-08T22:30:19.570Z,10.00
2023-01-08T22:32:49.044Z,9.90
2023-01-08T22:35:18.651Z,9.90
2023-01-08T22:37:48.090Z,9.90
2023-01-08T22:40:17.743Z,10.00
2023-01-08T22:42:47.283Z,9.90
2023-01-08T22:45:16.783Z,9.80
2023-01-08T22:47:46.195Z,10.00
2023-01-08T22:50:15.801Z,9.90
2023-01-08T22:52:45.230Z,9.90
2023-01-08T22:55:14.713Z,9.90
2023-01-08T22:57:44.593Z,9.80
2023-01-08T23:00:14.673Z,9.80
2023-01-08T23:02:44.166Z,9.80
2023-01-08T23:05:13.652Z,9.90
2023-01-08T23:07:43.080Z,9.70
2023-01-08T23:10:13.114Z,9.70
2023-01-08T23:12:42.537Z,9.70
2023-01-08T23:15:12.102Z,9.70
2023-01-08T23:17:51.562Z,9.70
2023-01-08T23:20:13.802Z,9.80
2023-01-08T23:22:43.394Z,9.80
2023-01-08T23:25:13.845Z,9.80
2023-01-08T23:27:44.867Z,9.70
2023-01-08T23:30:14.544Z,9.80
2023-01-08T23:32:43.951Z,9.80
2023-01-08T23:35:13.441Z,9.60
2023-01-08T23:37:43.161Z,9.70
2023-01-08T23:40:13.556Z,9.60
2023-01-08T23:42:43.187Z,9.60
2023-01-08T23:45:15.778Z,9.60
2023-01-08T23:47:45.836Z,9.70
2023-01-08T23:50:15.647Z,9.60
2023-01-08T23:52:45.148Z,9.70
2023-01-08T23:55:14.574Z,9.50
2023-01-08T23:57:44.083Z,9.50
